CDT5 weather

Bouctouche Airport
Buctouche, New Brunswick, Canada

Public forecast

Using degrees Celsius for public forecast. Weather courtesy of forecast.io.

METAR (pilot weather report)

Closest report is Greater Moncton International Airport, 23.9 nm (44.2 km) S. Retrieved 2019/04/20 20:26 UTC (8 minutes ago):

CYQM 202026Z 03008KT 1 3/4SM -RA BR OVC003 04/04 A3012 RMK SF8 PRESRR SLP203

TAF (pilot weather forecast)

Closest forecast is Greater Moncton International Airport, 23.9 nm (44.2 km) S. Retrieved 2019/04/20 18:43 UTC (2 hours ago):

TAF CYQM 201741Z 2018/2118 03008KT 6SM -RA BR OVC004 TEMPO 2018/2024 11/2SM RA BR OVC003 FM210000 05005KT 2SM -RA BR OVC003 TEMPO 2100/2106 6SM -DZ BR BKN005 OVC015 FM210600 12005KT P6SM OVC015 BECMG 2107/2109 18012KT FM211400 20015G28KT P6SM OVC020 TEMPO 2114/2118 P6SM -SHRA RMK NXT FCST BY 210000Z